sensor_id;sensor_type;location;lat;lon;timestamp;P1;durP1;ratioP1;P2;durP2;ratioP2
66870;SDS011;53780;44.998;9.926;2023-02-26T00:02:45;38.28;;;17.05;;
66870;SDS011;53780;44.998;9.926;2023-02-26T00:05:51;36.43;;;16.30;;
66870;SDS011;53780;44.998;9.926;2023-02-26T00:08:55;33.90;;;16.60;;
66870;SDS011;53780;44.998;9.926;2023-02-26T00:11:59;34.60;;;17.02;;
66870;SDS011;53780;44.998;9.926;2023-02-26T00:15:04;37.00;;;16.90;;
66870;SDS011;53780;44.998;9.926;2023-02-26T00:18:12;36.58;;;16.95;;
66870;SDS011;53780;44.998;9.926;2023-02-26T00:21:19;34.43;;;16.80;;
66870;SDS011;53780;44.998;9.926;2023-02-26T00:24:24;40.38;;;16.83;;
66870;SDS011;53780;44.998;9.926;2023-02-26T00:27:28;36.88;;;15.80;;
66870;SDS011;53780;44.998;9.926;2023-02-26T00:30:32;35.45;;;16.50;;
66870;SDS011;53780;44.998;9.926;2023-02-26T00:33:37;37.42;;;17.35;;
66870;SDS011;53780;44.998;9.926;2023-02-26T00:43:45;38.42;;;17.98;;
66870;SDS011;53780;44.998;9.926;2023-02-26T00:50:19;38.58;;;16.80;;
66870;SDS011;53780;44.998;9.926;2023-02-26T00:53:28;40.93;;;17.60;;
66870;SDS011;53780;44.998;9.926;2023-02-26T00:56:36;37.95;;;16.80;;
66870;SDS011;53780;44.998;9.926;2023-02-26T00:59:40;39.60;;;16.52;;
66870;SDS011;53780;44.998;9.926;2023-02-26T01:02:44;37.50;;;16.80;;
66870;SDS011;53780;44.998;9.926;2023-02-26T01:05:48;38.83;;;16.40;;
66870;SDS011;53780;44.998;9.926;2023-02-26T01:09:14;36.77;;;16.60;;
66870;SDS011;53780;44.998;9.926;2023-02-26T01:12:28;36.70;;;16.75;;
66870;SDS011;53780;44.998;9.926;2023-02-26T01:15:32;38.08;;;16.83;;
66870;SDS011;53780;44.998;9.926;2023-02-26T01:21:55;36.70;;;16.00;;
66870;SDS011;53780;44.998;9.926;2023-02-26T01:25:06;33.83;;;17.10;;
66870;SDS011;53780;44.998;9.926;2023-02-26T01:28:13;36.45;;;16.65;;
66870;SDS011;53780;44.998;9.926;2023-02-26T01:31:25;38.25;;;16.98;;
66870;SDS011;53780;44.998;9.926;2023-02-26T01:41:47;34.73;;;16.43;;
66870;SDS011;53780;44.998;9.926;2023-02-26T01:44:57;37.50;;;16.30;;
66870;SDS011;53780;44.998;9.926;2023-02-26T01:48:05;40.20;;;16.40;;
66870;SDS011;53780;44.998;9.926;2023-02-26T01:51:13;37.83;;;15.88;;
66870;SDS011;53780;44.998;9.926;2023-02-26T01:54:19;39.88;;;17.65;;
66870;SDS011;53780;44.998;9.926;2023-02-26T01:57:24;42.97;;;17.70;;
66870;SDS011;53780;44.998;9.926;2023-02-26T02:00:29;36.83;;;16.67;;
66870;SDS011;53780;44.998;9.926;2023-02-26T02:03:36;38.30;;;16.98;;
66870;SDS011;53780;44.998;9.926;2023-02-26T02:06:42;37.67;;;16.83;;
66870;SDS011;53780;44.998;9.926;2023-02-26T02:09:47;39.13;;;17.38;;
66870;SDS011;53780;44.998;9.926;2023-02-26T02:16:26;40.10;;;17.17;;
66870;SDS011;53780;44.998;9.926;2023-02-26T02:23:26;40.55;;;17.23;;
66870;SDS011;53780;44.998;9.926;2023-02-26T02:30:06;36.83;;;16.97;;
66870;SDS011;53780;44.998;9.926;2023-02-26T02:33:33;38.53;;;17.67;;
66870;SDS011;53780;44.998;9.926;2023-02-26T02:40:56;38.40;;;17.55;;
66870;SDS011;53780;44.998;9.926;2023-02-26T02:44:08;42.10;;;18.17;;
66870;SDS011;53780;44.998;9.926;2023-02-26T02:47:16;42.83;;;18.77;;
66870;SDS011;53780;44.998;9.926;2023-02-26T02:50:28;43.33;;;18.23;;
66870;SDS011;53780;44.998;9.926;2023-02-26T02:53:52;42.45;;;18.63;;
66870;SDS011;53780;44.998;9.926;2023-02-26T02:57:16;37.35;;;17.83;;
66870;SDS011;53780;44.998;9.926;2023-02-26T03:00:26;45.33;;;18.65;;
66870;SDS011;53780;44.998;9.926;2023-02-26T03:06:42;43.22;;;19.00;;
66870;SDS011;53780;44.998;9.926;2023-02-26T03:09:49;45.65;;;18.40;;
66870;SDS011;53780;44.998;9.926;2023-02-26T03:12:52;44.58;;;19.15;;
66870;SDS011;53780;44.998;9.926;2023-02-26T03:23:18;52.38;;;19.60;;
66870;SDS011;53780;44.998;9.926;2023-02-26T03:26:36;39.15;;;18.00;;
66870;SDS011;53780;44.998;9.926;2023-02-26T03:39:54;44.83;;;17.65;;
66870;SDS011;53780;44.998;9.926;2023-02-26T03:43:03;41.90;;;17.25;;
66870;SDS011;53780;44.998;9.926;2023-02-26T03:46:14;44.47;;;17.65;;
66870;SDS011;53780;44.998;9.926;2023-02-26T03:49:25;44.60;;;19.45;;
66870;SDS011;53780;44.998;9.926;2023-02-26T03:52:45;54.97;;;21.13;;
66870;SDS011;53780;44.998;9.926;2023-02-26T03:56:02;67.90;;;25.63;;
66870;SDS011;53780;44.998;9.926;2023-02-26T03:59:30;78.78;;;30.13;;
66870;SDS011;53780;44.998;9.926;2023-02-26T04:03:02;87.80;;;32.47;;
66870;SDS011;53780;44.998;9.926;2023-02-26T04:06:12;96.47;;;34.80;;
66870;SDS011;53780;44.998;9.926;2023-02-26T04:09:17;100.83;;;35.50;;
66870;SDS011;53780;44.998;9.926;2023-02-26T04:12:21;103.13;;;34.92;;
66870;SDS011;53780;44.998;9.926;2023-02-26T04:15:29;30.17;;;10.13;;
66870;SDS011;53780;44.998;9.926;2023-02-26T04:18:32;20.50;;;5.53;;
66870;SDS011;53780;44.998;9.926;2023-02-26T04:21:36;15.15;;;3.90;;
66870;SDS011;53780;44.998;9.926;2023-02-26T04:24:41;8.47;;;1.50;;
66870;SDS011;53780;44.998;9.926;2023-02-26T04:27:46;8.13;;;1.13;;
66870;SDS011;53780;44.998;9.926;2023-02-26T04:30:49;6.25;;;0.60;;
66870;SDS011;53780;44.998;9.926;2023-02-26T04:33:53;3.13;;;0.40;;
66870;SDS011;53780;44.998;9.926;2023-02-26T04:36:57;7.13;;;0.47;;
66870;SDS011;53780;44.998;9.926;2023-02-26T04:40:02;2.40;;;0.30;;
66870;SDS011;53780;44.998;9.926;2023-02-26T04:43:07;6.15;;;0.35;;
66870;SDS011;53780;44.998;9.926;2023-02-26T04:46:17;3.75;;;0.40;;
66870;SDS011;53780;44.998;9.926;2023-02-26T04:49:21;6.95;;;0.68;;
66870;SDS011;53780;44.998;9.926;2023-02-26T04:52:25;6.70;;;0.50;;
66870;SDS011;53780;44.998;9.926;2023-02-26T04:55:29;3.33;;;0.30;;
66870;SDS011;53780;44.998;9.926;2023-02-26T04:58:33;6.20;;;0.50;;
66870;SDS011;53780;44.998;9.926;2023-02-26T05:01:43;4.25;;;0.40;;
66870;SDS011;53780;44.998;9.926;2023-02-26T05:04:46;4.20;;;0.40;;
66870;SDS011;53780;44.998;9.926;2023-02-26T05:07:50;4.20;;;0.45;;
66870;SDS011;53780;44.998;9.926;2023-02-26T05:10:57;5.00;;;0.40;;
66870;SDS011;53780;44.998;9.926;2023-02-26T05:14:01;3.20;;;0.35;;
66870;SDS011;53780;44.998;9.926;2023-02-26T05:17:05;3.50;;;0.47;;
66870;SDS011;53780;44.998;9.926;2023-02-26T05:20:09;6.88;;;0.40;;
66870;SDS011;53780;44.998;9.926;2023-02-26T05:23:15;5.80;;;0.50;;
66870;SDS011;53780;44.998;9.926;2023-02-26T05:26:19;4.87;;;0.47;;
66870;SDS011;53780;44.998;9.926;2023-02-26T05:29:22;3.47;;;0.30;;
66870;SDS011;53780;44.998;9.926;2023-02-26T05:32:27;1.40;;;0.20;;
66870;SDS011;53780;44.998;9.926;2023-02-26T05:35:33;3.13;;;0.30;;
66870;SDS011;53780;44.998;9.926;2023-02-26T05:38:37;2.70;;;0.30;;
66870;SDS011;53780;44.998;9.926;2023-02-26T05:41:41;3.43;;;0.30;;
66870;SDS011;53780;44.998;9.926;2023-02-26T05:44:45;2.15;;;0.30;;
66870;SDS011;53780;44.998;9.926;2023-02-26T05:47:49;2.80;;;0.40;;
66870;SDS011;53780;44.998;9.926;2023-02-26T05:50:53;3.88;;;0.40;;
66870;SDS011;53780;44.998;9.926;2023-02-26T05:53:57;3.40;;;0.30;;
66870;SDS011;53780;44.998;9.926;2023-02-26T05:57:00;2.00;;;0.30;;
66870;SDS011;53780;44.998;9.926;2023-02-26T06:00:05;4.18;;;0.20;;
66870;SDS011;53780;44.998;9.926;2023-02-26T06:03:15;2.22;;;0.30;;
66870;SDS011;53780;44.998;9.926;2023-02-26T06:06:19;3.97;;;0.40;;
66870;SDS011;53780;44.998;9.926;2023-02-26T06:09:24;5.03;;;0.28;;
66870;SDS011;53780;44.998;9.926;2023-02-26T06:12:27;3.93;;;0.30;;
66870;SDS011;53780;44.998;9.926;2023-02-26T06:15:31;4.47;;;0.30;;
66870;SDS011;53780;44.998;9.926;2023-02-26T06:18:35;1.88;;;0.22;;
66870;SDS011;53780;44.998;9.926;2023-02-26T06:21:39;2.13;;;0.20;;
66870;SDS011;53780;44.998;9.926;2023-02-26T06:24:43;2.55;;;0.20;;
66870;SDS011;53780;44.998;9.926;2023-02-26T06:27:47;1.88;;;0.30;;
66870;SDS011;53780;44.998;9.926;2023-02-26T06:30:51;1.27;;;0.15;;
66870;SDS011;53780;44.998;9.926;2023-02-26T06:33:55;1.10;;;0.10;;
66870;SDS011;53780;44.998;9.926;2023-02-26T06:37:00;4.95;;;0.20;;
66870;SDS011;53780;44.998;9.926;2023-02-26T06:40:04;2.22;;;0.30;;
66870;SDS011;53780;44.998;9.926;2023-02-26T06:43:08;3.90;;;0.30;;
66870;SDS011;53780;44.998;9.926;2023-02-26T06:46:12;1.55;;;0.30;;
66870;SDS011;53780;44.998;9.926;2023-02-26T06:49:16;3.08;;;0.20;;
66870;SDS011;53780;44.998;9.926;2023-02-26T06:52:20;3.08;;;0.20;;
66870;SDS011;53780;44.998;9.926;2023-02-26T06:55:24;2.08;;;0.40;;
66870;SDS011;53780;44.998;9.926;2023-02-26T06:58:29;2.60;;;0.30;;
66870;SDS011;53780;44.998;9.926;2023-02-26T07:01:32;2.97;;;0.60;;
66870;SDS011;53780;44.998;9.926;2023-02-26T07:04:36;2.38;;;0.20;;
66870;SDS011;53780;44.998;9.926;2023-02-26T07:07:40;1.90;;;0.20;;
66870;SDS011;53780;44.998;9.926;2023-02-26T07:10:44;2.90;;;0.30;;
66870;SDS011;53780;44.998;9.926;2023-02-26T07:13:52;1.98;;;0.30;;
66870;SDS011;53780;44.998;9.926;2023-02-26T07:16:55;1.77;;;0.30;;
66870;SDS011;53780;44.998;9.926;2023-02-26T07:19:59;1.00;;;0.20;;
66870;SDS011;53780;44.998;9.926;2023-02-26T07:23:08;2.17;;;0.40;;
66870;SDS011;53780;44.998;9.926;2023-02-26T07:26:13;2.45;;;0.22;;
66870;SDS011;53780;44.998;9.926;2023-02-26T07:29:16;1.77;;;0.20;;
66870;SDS011;53780;44.998;9.926;2023-02-26T07:32:20;6.70;;;0.40;;
66870;SDS011;53780;44.998;9.926;2023-02-26T07:35:24;1.52;;;0.20;;
66870;SDS011;53780;44.998;9.926;2023-02-26T07:38:28;2.88;;;0.30;;
66870;SDS011;53780;44.998;9.926;2023-02-26T07:41:32;1.92;;;0.30;;
66870;SDS011;53780;44.998;9.926;2023-02-26T07:44:36;3.53;;;0.32;;
66870;SDS011;53780;44.998;9.926;2023-02-26T07:47:40;3.03;;;0.25;;
66870;SDS011;53780;44.998;9.926;2023-02-26T07:50:43;2.33;;;0.40;;
66870;SDS011;53780;44.998;9.926;2023-02-26T07:53:48;1.63;;;0.25;;
66870;SDS011;53780;44.998;9.926;2023-02-26T07:56:52;2.28;;;0.20;;
66870;SDS011;53780;44.998;9.926;2023-02-26T07:59:56;11.52;;;0.45;;
66870;SDS011;53780;44.998;9.926;2023-02-26T08:03:00;2.10;;;0.30;;
66870;SDS011;53780;44.998;9.926;2023-02-26T08:06:04;2.78;;;0.45;;
66870;SDS011;53780;44.998;9.926;2023-02-26T08:09:08;2.92;;;0.40;;
66870;SDS011;53780;44.998;9.926;2023-02-26T08:12:12;3.53;;;0.60;;
66870;SDS011;53780;44.998;9.926;2023-02-26T08:15:15;3.30;;;0.40;;
66870;SDS011;53780;44.998;9.926;2023-02-26T08:18:19;4.35;;;0.40;;
66870;SDS011;53780;44.998;9.926;2023-02-26T08:21:23;3.33;;;0.40;;
66870;SDS011;53780;44.998;9.926;2023-02-26T08:24:27;2.58;;;0.30;;
66870;SDS011;53780;44.998;9.926;2023-02-26T08:27:31;3.38;;;0.40;;
66870;SDS011;53780;44.998;9.926;2023-02-26T08:30:34;5.68;;;0.40;;
66870;SDS011;53780;44.998;9.926;2023-02-26T08:33:38;3.00;;;0.57;;
66870;SDS011;53780;44.998;9.926;2023-02-26T08:36:42;2.28;;;0.40;;
66870;SDS011;53780;44.998;9.926;2023-02-26T08:39:46;3.97;;;0.60;;
66870;SDS011;53780;44.998;9.926;2023-02-26T08:42:50;2.35;;;0.57;;
66870;SDS011;53780;44.998;9.926;2023-02-26T08:45:54;4.30;;;0.50;;
66870;SDS011;53780;44.998;9.926;2023-02-26T08:49:00;3.80;;;0.55;;
66870;SDS011;53780;44.998;9.926;2023-02-26T08:52:03;2.90;;;0.43;;
66870;SDS011;53780;44.998;9.926;2023-02-26T08:55:07;4.97;;;0.60;;
66870;SDS011;53780;44.998;9.926;2023-02-26T08:58:12;2.90;;;0.50;;
66870;SDS011;53780;44.998;9.926;2023-02-26T09:01:15;3.80;;;0.70;;
66870;SDS011;53780;44.998;9.926;2023-02-26T09:04:19;2.63;;;0.47;;
66870;SDS011;53780;44.998;9.926;2023-02-26T09:07:24;5.75;;;1.25;;
66870;SDS011;53780;44.998;9.926;2023-02-26T09:10:27;5.05;;;1.20;;
66870;SDS011;53780;44.998;9.926;2023-02-26T09:13:31;3.20;;;0.90;;
66870;SDS011;53780;44.998;9.926;2023-02-26T09:16:35;3.67;;;0.80;;
66870;SDS011;53780;44.998;9.926;2023-02-26T09:19:39;3.30;;;0.50;;
66870;SDS011;53780;44.998;9.926;2023-02-26T09:22:43;2.40;;;0.30;;
66870;SDS011;53780;44.998;9.926;2023-02-26T09:25:51;2.10;;;0.40;;
66870;SDS011;53780;44.998;9.926;2023-02-26T09:28:58;1.90;;;0.38;;
66870;SDS011;53780;44.998;9.926;2023-02-26T09:32:02;2.60;;;0.22;;
66870;SDS011;53780;44.998;9.926;2023-02-26T09:35:10;4.95;;;0.47;;
66870;SDS011;53780;44.998;9.926;2023-02-26T09:38:14;2.80;;;0.40;;
66870;SDS011;53780;44.998;9.926;2023-02-26T09:41:21;2.72;;;0.40;;
66870;SDS011;53780;44.998;9.926;2023-02-26T09:44:28;2.90;;;0.40;;
66870;SDS011;53780;44.998;9.926;2023-02-26T09:47:37;2.95;;;0.40;;
66870;SDS011;53780;44.998;9.926;2023-02-26T09:50:50;2.20;;;0.30;;
66870;SDS011;53780;44.998;9.926;2023-02-26T09:53:55;1.75;;;0.30;;
66870;SDS011;53780;44.998;9.926;2023-02-26T09:57:03;3.70;;;0.22;;
66870;SDS011;53780;44.998;9.926;2023-02-26T10:10:32;2.45;;;0.30;;
66870;SDS011;53780;44.998;9.926;2023-02-26T10:13:39;2.45;;;0.40;;
66870;SDS011;53780;44.998;9.926;2023-02-26T10:16:50;2.67;;;0.40;;
66870;SDS011;53780;44.998;9.926;2023-02-26T10:20:03;2.95;;;0.50;;
66870;SDS011;53780;44.998;9.926;2023-02-26T10:26:35;1.92;;;0.20;;
66870;SDS011;53780;44.998;9.926;2023-02-26T10:36:39;1.50;;;0.20;;
66870;SDS011;53780;44.998;9.926;2023-02-26T10:43:40;2.85;;;0.50;;
66870;SDS011;53780;44.998;9.926;2023-02-26T10:50:03;2.22;;;1.02;;
66870;SDS011;53780;44.998;9.926;2023-02-26T10:53:10;1.37;;;0.30;;
66870;SDS011;53780;44.998;9.926;2023-02-26T10:56:25;1.75;;;0.30;;
66870;SDS011;53780;44.998;9.926;2023-02-26T10:59:31;2.53;;;0.50;;
66870;SDS011;53780;44.998;9.926;2023-02-26T11:02:39;3.58;;;0.55;;
66870;SDS011;53780;44.998;9.926;2023-02-26T11:05:46;3.97;;;0.60;;
66870;SDS011;53780;44.998;9.926;2023-02-26T11:08:52;3.30;;;0.52;;
66870;SDS011;53780;44.998;9.926;2023-02-26T11:15:12;2.95;;;0.60;;
66870;SDS011;53780;44.998;9.926;2023-02-26T11:18:20;3.00;;;0.50;;
66870;SDS011;53780;44.998;9.926;2023-02-26T11:21:29;2.45;;;0.30;;
66870;SDS011;53780;44.998;9.926;2023-02-26T11:24:43;2.22;;;0.47;;
66870;SDS011;53780;44.998;9.926;2023-02-26T11:27:49;3.60;;;0.20;;
66870;SDS011;53780;44.998;9.926;2023-02-26T11:31:01;3.22;;;0.40;;
66870;SDS011;53780;44.998;9.926;2023-02-26T11:34:10;2.70;;;0.50;;
66870;SDS011;53780;44.998;9.926;2023-02-26T11:37:18;7.05;;;0.40;;
66870;SDS011;53780;44.998;9.926;2023-02-26T11:40:36;3.17;;;0.63;;
66870;SDS011;53780;44.998;9.926;2023-02-26T11:43:42;5.00;;;1.10;;
66870;SDS011;53780;44.998;9.926;2023-02-26T11:46:56;2.85;;;0.52;;
66870;SDS011;53780;44.998;9.926;2023-02-26T11:50:09;4.95;;;0.75;;
66870;SDS011;53780;44.998;9.926;2023-02-26T11:53:34;3.75;;;0.52;;
66870;SDS011;53780;44.998;9.926;2023-02-26T11:56:40;5.10;;;0.90;;
66870;SDS011;53780;44.998;9.926;2023-02-26T11:59:49;3.72;;;0.68;;
66870;SDS011;53780;44.998;9.926;2023-02-26T12:02:57;4.40;;;1.10;;
66870;SDS011;53780;44.998;9.926;2023-02-26T12:06:10;2.80;;;0.40;;
66870;SDS011;53780;44.998;9.926;2023-02-26T12:09:20;3.05;;;0.47;;
66870;SDS011;53780;44.998;9.926;2023-02-26T12:12:43;3.28;;;0.63;;
66870;SDS011;53780;44.998;9.926;2023-02-26T12:29:39;4.35;;;0.55;;
66870;SDS011;53780;44.998;9.926;2023-02-26T12:36:23;3.55;;;0.73;;
66870;SDS011;53780;44.998;9.926;2023-02-26T12:39:31;3.97;;;0.85;;
66870;SDS011;53780;44.998;9.926;2023-02-26T12:42:59;2.97;;;0.50;;
66870;SDS011;53780;44.998;9.926;2023-02-26T12:50:00;3.53;;;0.50;;
66870;SDS011;53780;44.998;9.926;2023-02-26T12:56:28;2.30;;;0.40;;
66870;SDS011;53780;44.998;9.926;2023-02-26T13:10:20;3.83;;;0.50;;
66870;SDS011;53780;44.998;9.926;2023-02-26T13:20:34;2.97;;;0.50;;
66870;SDS011;53780;44.998;9.926;2023-02-26T13:23:53;5.63;;;0.65;;
66870;SDS011;53780;44.998;9.926;2023-02-26T13:27:00;5.07;;;0.57;;
66870;SDS011;53780;44.998;9.926;2023-02-26T13:30:24;2.58;;;0.40;;
66870;SDS011;53780;44.998;9.926;2023-02-26T13:33:33;3.08;;;0.60;;
66870;SDS011;53780;44.998;9.926;2023-02-26T13:36:38;3.05;;;0.43;;
66870;SDS011;53780;44.998;9.926;2023-02-26T13:43:18;2.60;;;0.50;;
66870;SDS011;53780;44.998;9.926;2023-02-26T13:46:51;3.28;;;0.50;;
66870;SDS011;53780;44.998;9.926;2023-02-26T13:54:32;6.45;;;0.70;;
66870;SDS011;53780;44.998;9.926;2023-02-26T14:00:37;5.30;;;0.70;;
66870;SDS011;53780;44.998;9.926;2023-02-26T14:03:51;4.70;;;0.90;;
66870;SDS011;53780;44.998;9.926;2023-02-26T14:07:10;3.03;;;0.50;;
66870;SDS011;53780;44.998;9.926;2023-02-26T14:11:02;3.53;;;0.35;;
66870;SDS011;53780;44.998;9.926;2023-02-26T14:17:27;3.70;;;0.70;;
66870;SDS011;53780;44.998;9.926;2023-02-26T14:20:33;3.55;;;0.43;;
66870;SDS011;53780;44.998;9.926;2023-02-26T14:23:38;4.70;;;0.50;;
66870;SDS011;53780;44.998;9.926;2023-02-26T14:26:45;4.40;;;0.65;;
66870;SDS011;53780;44.998;9.926;2023-02-26T14:33:25;3.97;;;0.60;;
66870;SDS011;53780;44.998;9.926;2023-02-26T14:36:43;3.20;;;0.80;;
66870;SDS011;53780;44.998;9.926;2023-02-26T14:39:57;3.23;;;0.60;;
66870;SDS011;53780;44.998;9.926;2023-02-26T14:46:40;4.95;;;0.95;;
66870;SDS011;53780;44.998;9.926;2023-02-26T14:49:46;3.80;;;0.90;;
66870;SDS011;53780;44.998;9.926;2023-02-26T14:53:03;6.15;;;0.90;;
66870;SDS011;53780;44.998;9.926;2023-02-26T14:59:57;4.38;;;0.90;;
66870;SDS011;53780;44.998;9.926;2023-02-26T15:20:00;7.33;;;1.30;;
66870;SDS011;53780;44.998;9.926;2023-02-26T15:23:34;6.82;;;1.13;;
66870;SDS011;53780;44.998;9.926;2023-02-26T15:26:50;5.25;;;1.48;;
66870;SDS011;53780;44.998;9.926;2023-02-26T15:29:56;8.43;;;2.10;;
66870;SDS011;53780;44.998;9.926;2023-02-26T15:33:03;4.35;;;0.95;;
66870;SDS011;53780;44.998;9.926;2023-02-26T15:36:14;6.50;;;1.80;;
66870;SDS011;53780;44.998;9.926;2023-02-26T15:39:21;5.28;;;1.30;;
66870;SDS011;53780;44.998;9.926;2023-02-26T15:42:28;4.78;;;1.00;;
66870;SDS011;53780;44.998;9.926;2023-02-26T15:45:37;5.55;;;0.75;;
66870;SDS011;53780;44.998;9.926;2023-02-26T15:48:44;4.68;;;0.90;;
66870;SDS011;53780;44.998;9.926;2023-02-26T15:51:49;7.43;;;0.80;;
66870;SDS011;53780;44.998;9.926;2023-02-26T15:54:59;5.07;;;0.90;;
66870;SDS011;53780;44.998;9.926;2023-02-26T15:58:07;4.90;;;1.20;;
66870;SDS011;53780;44.998;9.926;2023-02-26T16:01:21;5.35;;;0.80;;
66870;SDS011;53780;44.998;9.926;2023-02-26T16:04:26;6.55;;;1.13;;
66870;SDS011;53780;44.998;9.926;2023-02-26T16:07:31;3.07;;;0.60;;
66870;SDS011;53780;44.998;9.926;2023-02-26T16:10:35;5.30;;;0.95;;
66870;SDS011;53780;44.998;9.926;2023-02-26T16:13:43;10.40;;;1.02;;
66870;SDS011;53780;44.998;9.926;2023-02-26T16:16:48;4.28;;;0.70;;
66870;SDS011;53780;44.998;9.926;2023-02-26T16:19:55;3.05;;;0.60;;
66870;SDS011;53780;44.998;9.926;2023-02-26T16:23:02;8.27;;;0.90;;
66870;SDS011;53780;44.998;9.926;2023-02-26T16:26:10;3.58;;;0.80;;
66870;SDS011;53780;44.998;9.926;2023-02-26T16:29:26;4.15;;;1.05;;
66870;SDS011;53780;44.998;9.926;2023-02-26T16:32:33;5.03;;;0.95;;
66870;SDS011;53780;44.998;9.926;2023-02-26T16:35:43;5.05;;;1.20;;
66870;SDS011;53780;44.998;9.926;2023-02-26T16:38:58;4.47;;;1.07;;
66870;SDS011;53780;44.998;9.926;2023-02-26T16:42:14;4.18;;;0.80;;
66870;SDS011;53780;44.998;9.926;2023-02-26T16:48:42;5.03;;;0.80;;
66870;SDS011;53780;44.998;9.926;2023-02-26T16:51:55;6.13;;;0.70;;
66870;SDS011;53780;44.998;9.926;2023-02-26T16:55:01;6.53;;;0.80;;
66870;SDS011;53780;44.998;9.926;2023-02-26T16:58:09;4.68;;;0.70;;
66870;SDS011;53780;44.998;9.926;2023-02-26T17:01:15;4.25;;;0.80;;
66870;SDS011;53780;44.998;9.926;2023-02-26T17:04:24;4.88;;;0.75;;
66870;SDS011;53780;44.998;9.926;2023-02-26T17:07:32;5.03;;;0.68;;
66870;SDS011;53780;44.998;9.926;2023-02-26T17:10:39;5.35;;;0.60;;
66870;SDS011;53780;44.998;9.926;2023-02-26T17:14:24;3.50;;;0.80;;
66870;SDS011;53780;44.998;9.926;2023-02-26T17:17:24;3.25;;;0.80;;
66870;SDS011;53780;44.998;9.926;2023-02-26T17:20:29;4.97;;;0.82;;
66870;SDS011;53780;44.998;9.926;2023-02-26T17:23:35;4.70;;;1.10;;
66870;SDS011;53780;44.998;9.926;2023-02-26T17:26:40;3.80;;;0.93;;
66870;SDS011;53780;44.998;9.926;2023-02-26T17:29:45;5.75;;;1.23;;
66870;SDS011;53780;44.998;9.926;2023-02-26T17:32:53;4.68;;;0.80;;
66870;SDS011;53780;44.998;9.926;2023-02-26T17:36:00;6.85;;;1.38;;
66870;SDS011;53780;44.998;9.926;2023-02-26T17:39:08;8.52;;;2.03;;
66870;SDS011;53780;44.998;9.926;2023-02-26T17:42:18;8.35;;;2.53;;
66870;SDS011;53780;44.998;9.926;2023-02-26T17:45:24;7.32;;;2.70;;
66870;SDS011;53780;44.998;9.926;2023-02-26T17:48:28;7.23;;;2.63;;
66870;SDS011;53780;44.998;9.926;2023-02-26T17:51:33;4.95;;;1.50;;
66870;SDS011;53780;44.998;9.926;2023-02-26T17:54:37;4.45;;;1.20;;
66870;SDS011;53780;44.998;9.926;2023-02-26T17:57:41;5.15;;;1.00;;
66870;SDS011;53780;44.998;9.926;2023-02-26T18:00:45;3.70;;;1.00;;
66870;SDS011;53780;44.998;9.926;2023-02-26T18:03:52;4.80;;;1.25;;
66870;SDS011;53780;44.998;9.926;2023-02-26T18:06:59;3.17;;;0.77;;
66870;SDS011;53780;44.998;9.926;2023-02-26T18:10:04;4.97;;;0.67;;
66870;SDS011;53780;44.998;9.926;2023-02-26T18:13:09;3.30;;;0.80;;
66870;SDS011;53780;44.998;9.926;2023-02-26T18:16:15;5.13;;;0.95;;
66870;SDS011;53780;44.998;9.926;2023-02-26T18:19:22;3.83;;;0.80;;
66870;SDS011;53780;44.998;9.926;2023-02-26T18:22:26;5.32;;;1.48;;
66870;SDS011;53780;44.998;9.926;2023-02-26T18:25:32;3.78;;;1.10;;
66870;SDS011;53780;44.998;9.926;2023-02-26T18:28:39;4.43;;;1.20;;
66870;SDS011;53780;44.998;9.926;2023-02-26T18:31:43;4.20;;;0.90;;
66870;SDS011;53780;44.998;9.926;2023-02-26T18:34:46;4.25;;;0.85;;
66870;SDS011;53780;44.998;9.926;2023-02-26T18:37:54;7.50;;;1.10;;
66870;SDS011;53780;44.998;9.926;2023-02-26T18:40:59;4.43;;;1.40;;
66870;SDS011;53780;44.998;9.926;2023-02-26T18:44:04;5.10;;;1.30;;
66870;SDS011;53780;44.998;9.926;2023-02-26T18:47:09;5.15;;;1.60;;
66870;SDS011;53780;44.998;9.926;2023-02-26T18:50:14;3.90;;;1.20;;
66870;SDS011;53780;44.998;9.926;2023-02-26T18:53:19;4.50;;;1.20;;
66870;SDS011;53780;44.998;9.926;2023-02-26T18:56:26;5.18;;;1.10;;
66870;SDS011;53780;44.998;9.926;2023-02-26T18:59:30;3.78;;;0.90;;
66870;SDS011;53780;44.998;9.926;2023-02-26T19:02:37;4.65;;;0.88;;
66870;SDS011;53780;44.998;9.926;2023-02-26T19:05:40;4.60;;;0.88;;
66870;SDS011;53780;44.998;9.926;2023-02-26T19:08:45;4.00;;;1.00;;
66870;SDS011;53780;44.998;9.926;2023-02-26T19:11:48;4.97;;;1.45;;
66870;SDS011;53780;44.998;9.926;2023-02-26T19:14:52;4.20;;;1.27;;
66870;SDS011;53780;44.998;9.926;2023-02-26T19:17:56;6.15;;;1.73;;
66870;SDS011;53780;44.998;9.926;2023-02-26T19:21:00;5.00;;;1.00;;
66870;SDS011;53780;44.998;9.926;2023-02-26T19:24:07;3.10;;;0.80;;
66870;SDS011;53780;44.998;9.926;2023-02-26T19:27:13;3.72;;;1.00;;
66870;SDS011;53780;44.998;9.926;2023-02-26T19:30:18;4.80;;;1.10;;
66870;SDS011;53780;44.998;9.926;2023-02-26T19:33:23;4.03;;;1.05;;
66870;SDS011;53780;44.998;9.926;2023-02-26T19:36:27;3.38;;;1.00;;
66870;SDS011;53780;44.998;9.926;2023-02-26T19:39:36;3.83;;;0.98;;
66870;SDS011;53780;44.998;9.926;2023-02-26T19:42:40;3.83;;;0.95;;
66870;SDS011;53780;44.998;9.926;2023-02-26T19:45:45;5.80;;;1.50;;
66870;SDS011;53780;44.998;9.926;2023-02-26T19:48:50;5.13;;;1.65;;
66870;SDS011;53780;44.998;9.926;2023-02-26T19:51:54;4.28;;;1.77;;
66870;SDS011;53780;44.998;9.926;2023-02-26T19:54:58;6.78;;;1.83;;
66870;SDS011;53780;44.998;9.926;2023-02-26T19:58:03;6.38;;;2.22;;
66870;SDS011;53780;44.998;9.926;2023-02-26T20:01:07;6.90;;;2.58;;
66870;SDS011;53780;44.998;9.926;2023-02-26T20:04:12;9.20;;;2.25;;
66870;SDS011;53780;44.998;9.926;2023-02-26T20:07:16;7.65;;;2.13;;
66870;SDS011;53780;44.998;9.926;2023-02-26T20:10:20;7.22;;;2.50;;
66870;SDS011;53780;44.998;9.926;2023-02-26T20:13:26;6.90;;;2.13;;
66870;SDS011;53780;44.998;9.926;2023-02-26T20:16:32;7.22;;;2.25;;
66870;SDS011;53780;44.998;9.926;2023-02-26T20:19:36;6.40;;;2.28;;
66870;SDS011;53780;44.998;9.926;2023-02-26T20:22:41;8.30;;;2.20;;
66870;SDS011;53780;44.998;9.926;2023-02-26T20:25:47;8.70;;;2.20;;
66870;SDS011;53780;44.998;9.926;2023-02-26T20:28:52;8.45;;;2.22;;
66870;SDS011;53780;44.998;9.926;2023-02-26T20:31:56;8.93;;;2.35;;
66870;SDS011;53780;44.998;9.926;2023-02-26T20:35:01;8.68;;;2.60;;
66870;SDS011;53780;44.998;9.926;2023-02-26T20:38:06;7.63;;;2.80;;
66870;SDS011;53780;44.998;9.926;2023-02-26T20:41:10;8.38;;;2.20;;
66870;SDS011;53780;44.998;9.926;2023-02-26T20:44:14;9.32;;;2.20;;
66870;SDS011;53780;44.998;9.926;2023-02-26T20:47:18;7.65;;;2.10;;
66870;SDS011;53780;44.998;9.926;2023-02-26T20:50:22;7.95;;;2.20;;
66870;SDS011;53780;44.998;9.926;2023-02-26T20:53:26;7.28;;;2.00;;
66870;SDS011;53780;44.998;9.926;2023-02-26T20:56:31;8.82;;;2.60;;
66870;SDS011;53780;44.998;9.926;2023-02-26T20:59:35;8.93;;;2.70;;
66870;SDS011;53780;44.998;9.926;2023-02-26T21:02:40;7.88;;;2.47;;
66870;SDS011;53780;44.998;9.926;2023-02-26T21:05:45;8.80;;;2.80;;
66870;SDS011;53780;44.998;9.926;2023-02-26T21:08:49;9.63;;;3.20;;
66870;SDS011;53780;44.998;9.926;2023-02-26T21:11:54;8.80;;;2.80;;
66870;SDS011;53780;44.998;9.926;2023-02-26T21:14:58;8.88;;;2.53;;
66870;SDS011;53780;44.998;9.926;2023-02-26T21:18:02;7.25;;;2.30;;
66870;SDS011;53780;44.998;9.926;2023-02-26T21:21:07;6.68;;;1.92;;
66870;SDS011;53780;44.998;9.926;2023-02-26T21:24:11;7.03;;;2.03;;
66870;SDS011;53780;44.998;9.926;2023-02-26T21:27:15;4.93;;;1.50;;
66870;SDS011;53780;44.998;9.926;2023-02-26T21:30:20;4.55;;;1.27;;
66870;SDS011;53780;44.998;9.926;2023-02-26T21:33:25;6.25;;;1.20;;
66870;SDS011;53780;44.998;9.926;2023-02-26T21:36:29;6.63;;;1.10;;
66870;SDS011;53780;44.998;9.926;2023-02-26T21:39:34;7.85;;;1.15;;